This is the latest recevied weather packets stored in our database for station/object TG5ALY-15. If no packets are shown the sender has not sent any weather packets the latest 10 day(s).
| Time | Temp. | Humidity | Pressure | Rain* | Wind** | Luminosity | Snow |
|---|---|---|---|---|---|---|---|
| 1778193307 | 20° C | 73% | 1027.4 hPa | 0 mm | - | 62 W/m² | - |
| 1778192106 | 21.11° C | 71% | 1027.4 hPa | 0 mm | - | 77 W/m² | - |
| 1778190905 | 20° C | 73% | 1027.4 hPa | 0 mm | - | 351 W/m² | - |
| 1778189704 | 20.56° C | 71% | 1027.4 hPa | 0 mm | - | 109 W/m² | - |
| 1778188502 | 21.67° C | 67% | 1027.9 hPa | 0 mm | - | 147 W/m² | - |
| 1778187301 | 23.33° C | 62% | 1027.4 hPa | 0 mm | - | 249 W/m² | - |
| 1778186101 | 23.89° C | 58% | 1027.4 hPa | 0 mm | - | 763 W/m² | - |
| 1778184895 | 23.89° C | 60% | 1027.4 hPa | 0 mm | - | 839 W/m² | - |
| 1778183693 | 25° C | 52% | 1028.3 hPa | 0 mm | - | 291 W/m² | - |
| 1778182492 | 26.11° C | 30% | 1027.9 hPa | 0 mm | - | 1024 W/m² | - |
| 1778181289 | 24.44° C | 34% | 1028.3 hPa | 0 mm | - | 959 W/m² | - |
| 1778180085 | 25.56° C | 36% | 1028.3 hPa | 0 mm | - | 214 W/m² | - |
| 1778178884 | 25° C | 35% | 1028.7 hPa | 0 mm | - | 1018 W/m² | - |
| 1778177682 | 25.56° C | 27% | 1029.2 hPa | 0 mm | - | 1007 W/m² | - |
| 1778176480 | 25° C | 33% | 1029.5 hPa | 0 mm | - | 1003 W/m² | - |
| 1778175275 | 25° C | 34% | 1029.5 hPa | 0 mm | - | 1018 W/m² | - |
| 1778174072 | 23.89° C | 45% | 1029.9 hPa | 0 mm | - | 1010 W/m² | - |
| 1778172870 | 23.89° C | 46% | 1030.4 hPa | 0 mm | - | 988 W/m² | - |
| 1778171669 | 22.78° C | 49% | 1030.4 hPa | 0 mm | - | 223 W/m² | - |
| 1778170466 | 22.22° C | 57% | 1030.4 hPa | 0 mm | - | 341 W/m² | - |
| 1778169264 | 22.22° C | 57% | 1030.8 hPa | 0 mm | - | 289 W/m² | - |
| 1778168063 | 21.67° C | 59% | 1030.8 hPa | 0 mm | - | 722 W/m² | - |
| 1778166860 | 20° C | 65% | 1031.3 hPa | 0 mm | - | 638 W/m² | - |
| 1778165658 | 20.56° C | 63% | 1031.3 hPa | 0 mm | - | 549 W/m² | - |
| 1778164452 | 18.33° C | 72% | 1031.3 hPa | 0 mm | - | 463 W/m² | - |
* Rain latest hour (hover to see other rain measurements)
** Current wind speed in m/s (hover to see current wind gust speed)